Time;durP1;ratioP1;P1;durP2;ratioP2;P2;SDS_P1;SDS_P2;PMS_P1;PMS_P2;Temp;Humidity;BMP_temperature;BMP_pressure;BME280_temperature;BME280_humidity;BME280_pressure;Samples;Min_cycle;Max_cycle;Signal;HPM_P1;HPM_P2
2022/08/21 00:01:55;;;;;;;4.20;1.42;;;16.00;99.90;;;;;;5056221;28;20028;-77
2022/08/21 00:04:22;;;;;;;1.60;1.25;;;16.00;99.90;;;;;;5040253;28;20044;-75
2022/08/21 00:06:49;;;;;;;3.50;1.35;;;16.00;99.90;;;;;;5056976;28;20186;-83
2022/08/21 00:09:15;;;;;;;2.88;1.38;;;15.90;99.90;;;;;;5056731;28;20411;-78
2022/08/21 00:11:41;;;;;;;2.05;1.20;;;15.90;99.90;;;;;;5056616;28;20052;-78
2022/08/21 00:14:09;;;;;;;3.60;1.17;;;15.80;99.90;;;;;;5056623;28;20036;-76
2022/08/21 00:16:35;;;;;;;3.80;1.13;;;15.80;99.90;;;;;;5040170;28;20045;-76
2022/08/21 00:19:00;;;;;;;3.42;1.52;;;15.70;99.90;;;;;;5023673;28;20037;-83
2022/08/21 00:21:26;;;;;;;1.35;0.93;;;15.70;99.90;;;;;;5056626;28;20045;-75
2022/08/21 00:23:52;;;;;;;2.83;1.00;;;15.70;99.90;;;;;;5056246;28;20174;-78
2022/08/21 00:26:18;;;;;;;5.75;1.10;;;15.70;99.90;;;;;;5056209;28;20040;-83
2022/08/21 00:28:45;;;;;;;1.48;1.08;;;15.70;99.90;;;;;;5056256;28;20534;-78
2022/08/21 00:31:12;;;;;;;2.60;1.35;;;15.70;99.90;;;;;;5039825;28;20048;-77
2022/08/21 00:33:38;;;;;;;4.13;1.38;;;15.70;99.90;;;;;;5056100;28;20414;-75
2022/08/21 00:36:04;;;;;;;2.42;1.10;;;15.70;99.90;;;;;;5023314;28;20083;-79
2022/08/21 00:38:30;;;;;;;2.80;1.00;;;15.60;99.90;;;;;;5056016;28;20080;-76
2022/08/21 00:40:58;;;;;;;1.80;0.93;;;15.60;99.90;;;;;;5039769;28;20444;-78
2022/08/21 00:43:28;;;;;;;7.82;1.10;;;15.70;99.90;;;;;;5039656;28;20040;-83
2022/08/21 00:45:55;;;;;;;2.13;1.20;;;15.50;99.90;;;;;;5055840;28;20040;-75
2022/08/21 00:48:22;;;;;;;3.13;1.40;;;15.40;99.90;;;;;;5039657;28;20484;-83
2022/08/21 00:51:01;;;;;;;2.78;1.00;;;15.50;99.90;;;;;;5039542;28;20041;-82
2022/08/21 00:53:28;;;;;;;1.75;1.05;;;15.40;99.90;;;;;;5073581;28;20499;-83
2022/08/21 00:55:55;;;;;;;6.93;1.10;;;15.40;99.90;;;;;;5039109;28;20079;-82
2022/08/21 00:58:21;;;;;;;5.20;1.13;;;15.40;99.90;;;;;;5039318;28;20593;-76
2022/08/21 01:00:50;;;;;;;4.50;1.10;;;15.30;99.90;;;;;;5039028;28;20044;-84
2022/08/21 01:03:20;;;;;;;1.10;1.00;;;15.40;99.90;;;;;;5055663;28;20040;-78
2022/08/21 01:05:46;;;;;;;2.67;0.90;;;15.40;99.90;;;;;;5039474;28;20086;-78
2022/08/21 01:08:15;;;;;;;5.25;1.50;;;15.30;99.90;;;;;;5055486;28;20037;-79
2022/08/21 01:10:41;;;;;;;2.15;1.10;;;15.40;99.90;;;;;;5038805;28;20166;-83
2022/08/21 01:13:09;;;;;;;2.42;0.93;;;15.40;99.90;;;;;;5038616;28;20079;-83
2022/08/21 01:15:38;;;;;;;2.22;1.13;;;15.40;99.90;;;;;;5055371;28;20037;-78
2022/08/21 01:18:07;;;;;;;5.10;1.23;;;15.40;99.90;;;;;;5038656;28;20044;-78
2022/08/21 01:20:33;;;;;;;2.22;1.08;;;15.40;99.90;;;;;;5039107;28;20036;-75
2022/08/21 01:23:04;;;;;;;2.38;1.05;;;15.40;99.90;;;;;;5038848;28;20044;-83
2022/08/21 01:25:31;;;;;;;2.45;1.33;;;15.40;99.90;;;;;;5022463;28;20044;-83
2022/08/21 01:28:01;;;;;;;2.45;1.05;;;15.40;99.90;;;;;;5055548;28;20080;-78
2022/08/21 01:30:28;;;;;;;2.63;1.10;;;15.30;99.90;;;;;;5038579;28;20135;-77
2022/08/21 01:32:55;;;;;;;2.30;1.20;;;15.30;99.90;;;;;;5038833;28;20317;-78
2022/08/21 01:35:21;;;;;;;2.22;1.25;;;15.30;99.90;;;;;;5038855;28;20456;-83
2022/08/21 01:37:48;;;;;;;2.05;1.15;;;15.20;99.90;;;;;;5038435;28;20458;-78
2022/08/21 01:40:16;;;;;;;3.80;1.23;;;15.30;99.90;;;;;;5038565;28;20044;-75
2022/08/21 01:42:43;;;;;;;2.40;1.15;;;15.20;99.90;;;;;;5055343;28;20028;-83
2022/08/21 01:45:09;;;;;;;2.38;1.10;;;15.20;99.90;;;;;;5021839;28;20040;-83
2022/08/21 01:47:36;;;;;;;1.52;1.15;;;15.30;99.90;;;;;;5022099;28;20049;-84
2022/08/21 01:50:05;;;;;;;4.22;1.17;;;15.20;99.90;;;;;;5038693;28;20032;-78
2022/08/21 01:52:31;;;;;;;2.10;1.40;;;15.20;99.90;;;;;;5055405;28;20098;-78
2022/08/21 01:54:56;;;;;;;4.25;1.80;;;15.20;99.90;;;;;;5038185;28;20048;-83
2022/08/21 01:57:24;;;;;;;4.45;1.55;;;15.20;99.90;;;;;;5038421;28;20438;-78
2022/08/21 01:59:49;;;;;;;3.30;1.77;;;15.20;99.90;;;;;;5038170;28;20037;-82
2022/08/21 02:02:15;;;;;;;6.75;1.90;;;15.10;99.90;;;;;;5021875;28;20643;-77
2022/08/21 02:04:40;;;;;;;2.55;1.27;;;15.10;99.90;;;;;;5055435;28;20040;-83
2022/08/21 02:07:06;;;;;;;5.38;1.83;;;15.10;99.90;;;;;;5039088;28;20058;-78
2022/08/21 02:09:33;;;;;;;4.40;1.63;;;15.10;99.90;;;;;;5055165;28;20059;-78
2022/08/21 02:11:59;;;;;;;5.50;1.80;;;15.10;99.90;;;;;;5038696;28;20391;-83
2022/08/21 02:14:25;;;;;;;4.05;1.92;;;15.00;99.90;;;;;;5054987;28;20044;-78
2022/08/21 02:16:51;;;;;;;2.40;1.60;;;15.00;99.90;;;;;;5038108;28;20136;-83
2022/08/21 02:19:16;;;;;;;2.20;1.42;;;15.00;99.90;;;;;;5021618;28;20052;-78
2022/08/21 02:21:44;;;;;;;5.55;1.90;;;15.00;99.90;;;;;;5021957;28;20037;-78
2022/08/21 02:24:11;;;;;;;3.03;1.70;;;15.10;99.90;;;;;;5023706;28;20045;-75
2022/08/21 02:26:37;;;;;;;5.72;2.17;;;15.00;99.90;;;;;;5058539;28;20041;-79
2022/08/21 02:29:04;;;;;;;2.97;1.77;;;15.00;99.90;;;;;;5041899;28;20133;-78
2022/08/21 02:31:31;;;;;;;4.45;1.90;;;15.40;99.90;;;;;;5058391;28;20126;-76
2022/08/21 02:33:56;;;;;;;5.82;2.08;;;15.00;99.90;;;;;;5041889;28;20132;-77
2022/08/21 02:36:22;;;;;;;4.50;2.53;;;15.00;99.90;;;;;;5059077;28;20129;-76
2022/08/21 02:38:49;;;;;;;3.63;2.20;;;15.00;99.90;;;;;;5058188;28;20392;-82
2022/08/21 02:41:17;;;;;;;3.90;2.35;;;15.00;99.90;;;;;;5058664;28;20040;-78
2022/08/21 02:43:44;;;;;;;5.95;2.33;;;15.00;99.90;;;;;;5041744;28;20448;-78
2022/08/21 02:46:12;;;;;;;4.68;1.95;;;15.00;99.90;;;;;;5058193;28;20396;-75
2022/08/21 02:48:38;;;;;;;4.13;2.17;;;15.00;99.90;;;;;;5058213;28;20036;-78
2022/08/21 02:51:13;;;;;;;4.78;2.15;;;15.00;99.90;;;;;;5041434;28;20041;-83
2022/08/21 02:53:40;;;;;;;5.68;1.75;;;15.00;99.90;;;;;;5057956;28;20123;-76
2022/08/21 02:56:09;;;;;;;3.47;2.35;;;14.90;99.90;;;;;;5058007;28;20086;-82
2022/08/21 02:58:38;;;;;;;4.63;2.13;;;14.90;99.90;;;;;;5057896;28;20032;-78
2022/08/21 03:01:08;;;;;;;3.53;2.00;;;14.90;99.90;;;;;;5041221;28;20036;-83
2022/08/21 03:03:35;;;;;;;2.85;1.60;;;14.80;99.90;;;;;;5057781;28;20119;-83
2022/08/21 03:06:00;;;;;;;3.47;2.22;;;14.80;99.90;;;;;;5057998;28;20041;-83
2022/08/21 03:08:26;;;;;;;3.33;1.80;;;14.80;99.90;;;;;;5059219;28;20078;-78
2022/08/21 03:10:53;;;;;;;4.53;2.00;;;14.70;99.90;;;;;;5057684;28;20532;-78
2022/08/21 03:13:20;;;;;;;3.17;1.90;;;14.70;99.90;;;;;;5058017;28;20040;-78
2022/08/21 03:15:46;;;;;;;3.17;1.65;;;14.70;99.90;;;;;;5041435;28;20400;-83
2022/08/21 03:18:12;;;;;;;3.88;1.98;;;14.70;99.90;;;;;;5057484;28;20403;-76
2022/08/21 03:20:39;;;;;;;3.17;1.95;;;14.70;99.90;;;;;;5024308;28;20097;-77
2022/08/21 03:23:07;;;;;;;5.13;1.67;;;14.60;99.90;;;;;;5057478;28;20040;-78
2022/08/21 03:25:34;;;;;;;4.85;2.58;;;14.70;99.90;;;;;;5040781;28;20087;-79
2022/08/21 03:28:01;;;;;;;3.72;1.92;;;14.60;99.90;;;;;;5040715;28;20101;-83
2022/08/21 03:30:27;;;;;;;2.38;1.90;;;14.70;99.90;;;;;;5041059;28;20048;-77
2022/08/21 03:32:54;;;;;;;3.72;2.38;;;14.70;99.90;;;;;;5040685;28;20089;-78
2022/08/21 03:35:20;;;;;;;3.10;2.30;;;14.70;99.90;;;;;;5039308;28;20044;-76
2022/08/21 03:37:46;;;;;;;3.85;2.03;;;14.70;99.90;;;;;;5057325;28;20052;-83
2022/08/21 03:40:15;;;;;;;4.75;2.40;;;14.70;99.90;;;;;;5057575;28;20052;-78
2022/08/21 03:42:41;;;;;;;4.05;1.92;;;14.70;99.90;;;;;;5057501;28;20043;-77
2022/08/21 03:45:08;;;;;;;2.92;2.10;;;14.70;99.90;;;;;;5057097;28;20130;-83
2022/08/21 03:47:34;;;;;;;3.67;2.17;;;14.70;99.90;;;;;;5040722;28;20080;-78
2022/08/21 03:50:01;;;;;;;4.55;2.05;;;14.60;99.90;;;;;;5024062;28;20044;-83
2022/08/21 03:52:27;;;;;;;3.92;2.17;;;14.70;99.90;;;;;;5057171;28;20041;-78
2022/08/21 03:54:52;;;;;;;4.10;2.58;;;14.60;99.90;;;;;;5056897;28;20040;-77
2022/08/21 03:57:18;;;;;;;7.93;2.55;;;14.80;99.90;;;;;;5040249;28;20483;-78
2022/08/21 03:59:44;;;;;;;4.35;2.67;;;14.70;99.90;;;;;;5040145;28;20089;-78
2022/08/21 04:02:11;;;;;;;5.03;2.63;;;14.60;99.90;;;;;;5057007;28;20550;-83
2022/08/21 04:04:37;;;;;;;4.43;2.63;;;14.60;99.90;;;;;;5056567;28;20072;-79
2022/08/21 04:07:03;;;;;;;4.93;2.60;;;14.60;99.90;;;;;;5023596;28;20514;-76
2022/08/21 04:09:29;;;;;;;3.15;2.20;;;14.60;99.90;;;;;;5056874;28;20188;-78
2022/08/21 04:11:56;;;;;;;3.35;1.95;;;15.00;99.90;;;;;;5058436;28;20078;-78
2022/08/21 04:14:22;;;;;;;3.67;2.45;;;14.60;99.90;;;;;;5039854;28;20041;-78
2022/08/21 04:16:48;;;;;;;6.10;2.75;;;14.60;99.90;;;;;;5039960;28;20480;-78
2022/08/21 04:19:14;;;;;;;5.82;2.17;;;14.60;99.90;;;;;;5056624;28;20409;-81
2022/08/21 04:21:40;;;;;;;4.72;2.42;;;14.60;99.90;;;;;;5039817;28;20458;-77
2022/08/21 04:24:09;;;;;;;3.92;2.40;;;14.60;99.90;;;;;;5023587;28;20079;-83
2022/08/21 04:26:36;;;;;;;4.40;2.60;;;14.60;99.90;;;;;;5056512;28;20083;-82
2022/08/21 04:29:02;;;;;;;5.47;2.25;;;14.60;99.90;;;;;;5039859;28;20051;-83
2022/08/21 04:31:28;;;;;;;3.63;2.20;;;14.60;99.90;;;;;;5056219;28;20404;-78
2022/08/21 04:33:54;;;;;;;6.25;2.25;;;14.60;99.90;;;;;;5039493;28;20036;-77
2022/08/21 04:36:20;;;;;;;3.70;2.28;;;14.60;99.90;;;;;;5056065;28;20044;-78
2022/08/21 04:38:46;;;;;;;4.55;2.33;;;14.60;99.90;;;;;;5056090;28;20056;-76
2022/08/21 04:41:12;;;;;;;5.55;2.28;;;14.60;99.90;;;;;;5022938;28;20044;-78
2022/08/21 04:43:38;;;;;;;3.97;2.25;;;14.60;99.90;;;;;;5040050;28;20107;-83
2022/08/21 04:46:04;;;;;;;6.97;2.38;;;15.00;99.90;;;;;;5038973;28;20050;-83
2022/08/21 04:48:29;;;;;;;3.95;2.33;;;14.70;99.90;;;;;;5056332;28;20100;-76
2022/08/21 04:51:07;;;;;;;3.72;2.08;;;14.70;99.90;;;;;;5055806;28;20053;-76
2022/08/21 04:53:38;;;;;;;3.20;2.28;;;14.70;99.90;;;;;;5039343;28;20041;-77
2022/08/21 04:56:31;;;;;;;4.00;2.45;;;14.70;99.90;;;;;;5056001;28;20496;-76
2022/08/21 04:59:00;;;;;;;4.72;2.15;;;14.70;99.90;;;;;;5055643;28;20522;-77
2022/08/21 05:01:28;;;;;;;3.92;2.30;;;14.70;99.90;;;;;;5055639;28;20068;-75
2022/08/21 05:03:57;;;;;;;4.50;2.63;;;14.80;99.90;;;;;;5055588;28;20049;-75
2022/08/21 05:06:24;;;;;;;5.55;2.63;;;14.80;99.90;;;;;;5055526;28;20049;-78
2022/08/21 05:08:52;;;;;;;4.20;2.00;;;14.80;99.90;;;;;;5055840;28;20036;-78
2022/08/21 05:11:19;;;;;;;3.80;2.50;;;14.80;99.90;;;;;;5039648;28;20048;-83
2022/08/21 05:13:45;;;;;;;3.92;2.53;;;14.90;99.90;;;;;;5038762;28;20044;-82
2022/08/21 05:16:11;;;;;;;4.00;2.13;;;14.90;99.90;;;;;;5038749;28;20040;-76
2022/08/21 05:18:37;;;;;;;6.75;2.10;;;14.90;99.90;;;;;;5055766;28;20085;-77
2022/08/21 05:21:03;;;;;;;7.78;2.60;;;14.90;99.90;;;;;;5055417;28;20511;-78
2022/08/21 05:23:28;;;;;;;3.50;2.08;;;15.00;99.90;;;;;;5055381;28;20036;-82
2022/08/21 05:25:55;;;;;;;3.55;2.17;;;15.00;99.90;;;;;;5055349;28;20127;-77
2022/08/21 05:28:21;;;;;;;3.20;2.00;;;15.10;99.90;;;;;;5038589;28;20123;-75
2022/08/21 05:30:46;;;;;;;3.03;2.20;;;15.10;99.90;;;;;;5022151;28;20075;-76
2022/08/21 05:33:12;;;;;;;4.05;2.28;;;15.10;99.90;;;;;;5054987;28;20103;-83
2022/08/21 05:35:38;;;;;;;3.13;2.10;;;15.20;99.90;;;;;;5054991;28;20048;-83
2022/08/21 05:38:04;;;;;;;5.75;2.50;;;15.30;99.90;;;;;;5055233;28;20182;-77
2022/08/21 05:40:30;;;;;;;4.18;2.28;;;15.30;99.90;;;;;;5022046;28;20072;-76
2022/08/21 05:42:57;;;;;;;3.78;2.10;;;15.30;99.90;;;;;;5055290;28;20115;-83
2022/08/21 05:45:25;;;;;;;4.00;2.13;;;15.40;99.90;;;;;;5055079;28;20047;-78
2022/08/21 05:47:50;;;;;;;4.35;1.98;;;15.50;99.90;;;;;;5038340;28;20048;-80
2022/08/21 05:50:16;;;;;;;3.85;1.98;;;15.60;99.90;;;;;;5055489;28;20154;-76
2022/08/21 05:52:42;;;;;;;4.95;2.08;;;15.60;99.90;;;;;;5038337;28;20044;-77
2022/08/21 05:55:08;;;;;;;4.40;2.45;;;15.70;99.90;;;;;;5055116;28;20045;-79
2022/08/21 05:57:33;;;;;;;3.13;2.00;;;15.70;99.90;;;;;;5038723;28;20495;-75
2022/08/21 05:59:59;;;;;;;2.83;1.95;;;15.80;99.90;;;;;;5058472;28;20090;-77
2022/08/21 06:02:25;;;;;;;6.07;2.00;;;15.90;99.90;;;;;;5058985;28;20052;-73
2022/08/21 06:04:50;;;;;;;3.28;2.22;;;15.90;99.90;;;;;;5042543;28;20127;-82
2022/08/21 06:07:16;;;;;;;3.38;1.80;;;16.00;99.90;;;;;;5058902;28;20051;-83
2022/08/21 06:09:42;;;;;;;3.35;1.98;;;16.10;99.90;;;;;;5042203;28;20087;-76
2022/08/21 06:12:10;;;;;;;3.58;1.75;;;16.20;99.90;;;;;;5058652;28;20052;-75
2022/08/21 06:14:38;;;;;;;7.78;2.05;;;16.20;99.90;;;;;;5058603;28;20051;-83
2022/08/21 06:17:05;;;;;;;7.88;2.38;;;16.30;99.90;;;;;;5042147;28;20085;-74
2022/08/21 06:19:31;;;;;;;2.67;2.00;;;16.40;99.90;;;;;;5058437;28;20101;-82
2022/08/21 06:21:58;;;;;;;4.47;2.22;;;16.50;99.90;;;;;;5058612;28;20070;-74
2022/08/21 06:24:24;;;;;;;6.45;2.28;;;16.60;99.90;;;;;;5025410;28;20041;-75
2022/08/21 06:26:50;;;;;;;5.43;1.92;;;16.70;99.90;;;;;;5041797;28;20165;-81
2022/08/21 06:29:16;;;;;;;4.25;2.28;;;16.70;99.90;;;;;;5025435;28;20538;-78
2022/08/21 06:31:43;;;;;;;3.60;1.83;;;16.80;99.90;;;;;;5058409;28;20066;-75
2022/08/21 06:34:08;;;;;;;3.72;2.00;;;16.90;99.90;;;;;;5042039;28;20037;-79
2022/08/21 06:36:34;;;;;;;2.97;2.05;;;17.10;99.90;;;;;;5058535;28;20047;-80
2022/08/21 06:39:00;;;;;;;4.10;2.20;;;17.20;99.90;;;;;;5057908;28;20059;-79
2022/08/21 06:41:25;;;;;;;3.38;1.90;;;17.30;99.90;;;;;;5025127;28;20403;-80
2022/08/21 06:43:51;;;;;;;2.92;1.85;;;17.40;99.90;;;;;;5058962;28;20407;-79
2022/08/21 06:46:17;;;;;;;3.03;2.25;;;17.50;99.90;;;;;;5025457;28;20128;-77
2022/08/21 06:48:43;;;;;;;5.30;1.83;;;17.70;99.90;;;;;;5059225;28;20087;-78
2022/08/21 06:51:09;;;;;;;2.97;1.83;;;17.80;99.90;;;;;;5041721;28;20036;-78
2022/08/21 06:53:35;;;;;;;6.05;2.50;;;17.90;99.90;;;;;;5058011;28;20051;-74
2022/08/21 06:56:00;;;;;;;3.70;1.88;;;18.00;99.90;;;;;;5057928;28;20037;-79
2022/08/21 06:58:27;;;;;;;3.55;2.17;;;;;;;;;;5041639;28;20036;-74
2022/08/21 07:00:53;;;;;;;1.98;1.33;;;;;;;;;;5057843;28;20041;-79
2022/08/21 07:03:21;;;;;;;5.97;1.95;;;;;;;;;;5041258;28;20047;-80
2022/08/21 07:05:47;;;;;;;4.03;1.98;;;18.50;99.90;;;;;;5041365;28;20123;-73
2022/08/21 07:08:12;;;;;;;2.78;1.60;;;18.60;99.90;;;;;;5041222;28;20079;-75
2022/08/21 07:10:38;;;;;;;3.78;1.70;;;18.50;99.90;;;;;;5041107;28;20557;-78
2022/08/21 07:13:04;;;;;;;5.45;1.80;;;18.80;99.90;;;;;;5057940;28;20036;-78
2022/08/21 07:15:30;;;;;;;2.53;1.58;;;18.80;99.90;;;;;;5041027;28;20127;-80
2022/08/21 07:17:58;;;;;;;4.70;1.58;;;18.80;99.90;;;;;;5041219;28;20133;-78
2022/08/21 07:20:24;;;;;;;2.53;1.48;;;18.90;99.90;;;;;;5041248;28;20046;-78
2022/08/21 07:22:50;;;;;;;5.43;1.65;;;19.00;99.90;;;;;;5026990;28;20037;-79
2022/08/21 07:25:16;;;;;;;3.42;1.63;;;19.10;99.90;;;;;;5041276;28;20041;-84
2022/08/21 07:27:41;;;;;;;4.10;1.58;;;19.10;99.90;;;;;;5040952;28;20128;-78
2022/08/21 07:30:07;;;;;;;5.13;1.45;;;19.20;99.90;;;;;;5024250;28;20040;-85
2022/08/21 07:32:33;;;;;;;3.58;1.50;;;19.30;99.90;;;;;;5057501;28;20040;-87
2022/08/21 07:34:59;;;;;;;3.53;1.67;;;19.30;99.90;;;;;;5040577;28;20051;-78
2022/08/21 07:37:24;;;;;;;3.25;1.35;;;19.40;99.90;;;;;;5057250;28;20530;-74
2022/08/21 07:39:51;;;;;;;2.75;1.65;;;19.60;99.90;;;;;;5056935;28;20095;-74
2022/08/21 07:42:17;;;;;;;2.95;1.38;;;19.80;99.90;;;;;;5024323;28;20029;-76
2022/08/21 07:44:43;;;;;;;4.05;1.20;;;;;;;;;;5057000;28;20090;-75
2022/08/21 07:47:09;;;;;;;3.60;1.40;;;;;;;;;;5040701;28;20052;-74
2022/08/21 07:49:35;;;;;;;6.20;1.30;;;;;;;;;;5057009;28;20113;-78
2022/08/21 07:52:01;;;;;;;4.45;1.30;;;;;;;;;;5040574;28;20040;-80
2022/08/21 07:54:27;;;;;;;4.03;0.93;;;;;;;;;;5023940;28;20083;-74
2022/08/21 07:56:53;;;;;;;1.67;1.17;;;;;;;;;;5056699;28;20090;-82
2022/08/21 07:59:19;;;;;;;5.78;1.33;;;;;;;;;;5040041;28;20091;-77
2022/08/21 08:01:46;;;;;;;3.05;1.15;;;;;;;;;;5040246;28;20040;-77
2022/08/21 08:04:12;;;;;;;1.67;1.20;;;;;;;;;;5040034;28;20037;-78
2022/08/21 08:06:38;;;;;;;2.88;1.10;;;;;;;;;;5040120;28;20416;-80
2022/08/21 08:09:04;;;;;;;4.53;1.40;;;;;;;;;;5056773;28;20440;-83
2022/08/21 08:11:30;;;;;;;4.03;1.10;;;;;;;;;;5040101;28;20044;-79
2022/08/21 08:13:57;;;;;;;4.05;1.13;;;;;;;;;;5039804;28;20056;-81
2022/08/21 08:16:24;;;;;;;4.55;1.60;;;;;;;;;;5040208;28;20506;-78
2022/08/21 08:18:51;;;;;;;5.03;1.42;;;;;;;;;;5039848;28;20411;-81
2022/08/21 08:21:20;;;;;;;1.67;1.00;;;;;;;;;;5073736;28;20060;-78
2022/08/21 08:23:46;;;;;;;2.20;1.08;;;;;;;;;;5040088;28;20488;-78
2022/08/21 08:26:12;;;;;;;3.50;1.08;;;;;;;;;;5058270;28;20442;-81
2022/08/21 08:28:38;;;;;;;2.40;1.42;;;;;;;;;;5041274;28;20041;-76
2022/08/21 08:31:04;;;;;;;4.95;1.15;;;;;;;;;;5039887;28;20415;-79
2022/08/21 08:33:31;;;;;;;1.70;1.08;;;;;;;;;;5039630;28;20048;-74
2022/08/21 08:35:57;;;;;;;2.55;1.10;;;;;;;;;;5056777;28;20036;-83
2022/08/21 08:38:24;;;;;;;2.42;1.20;;;;;;;;;;5055907;28;20048;-75
2022/08/21 08:40:51;;;;;;;2.40;1.00;;;;;;;;;;5039657;28;20036;-75
2022/08/21 08:43:17;;;;;;;2.83;1.10;;;;;;;;;;5041016;28;20041;-84
2022/08/21 08:45:46;;;;;;;2.17;0.90;;;;;;;;;;5040225;28;20040;-78
2022/08/21 08:48:13;;;;;;;6.38;1.05;;;;;;;;;;5056667;28;20040;-81
2022/08/21 08:50:39;;;;;;;4.30;1.23;;;;;;;;;;5057148;28;20467;-80
2022/08/21 08:53:08;;;;;;;3.90;1.00;;;;;;;;;;5056009;28;20076;-79
2022/08/21 08:55:42;;;;;;;1.85;1.20;;;;;;;;;;5055682;28;20063;-79
2022/08/21 08:58:12;;;;;;;2.72;1.10;;;;;;;;;;5056674;28;20033;-78
2022/08/21 09:00:39;;;;;;;2.17;0.88;;;;;;;;;;5055750;28;20460;-81
2022/08/21 09:03:05;;;;;;;1.25;0.65;;;;;;;;;;5055971;28;20036;-80
2022/08/21 09:05:40;;;;;;;1.27;0.73;;;;;;;;;;5039034;28;20043;-80
2022/08/21 09:08:16;;;;;;;6.03;1.20;;;;;;;;;;5055761;28;20040;-75
2022/08/21 09:10:45;;;;;;;3.22;1.10;;;;;;;;;;5055652;28;20499;-79
2022/08/21 09:13:14;;;;;;;1.90;1.05;;;;;;;;;;5039002;28;20089;-78
2022/08/21 09:15:52;;;;;;;3.33;1.40;;;;;;;;;;5055305;28;20046;-77
2022/08/21 09:18:30;;;;;;;1.50;0.85;;;;;;;;;;5038916;28;20045;-79
2022/08/21 09:20:56;;;;;;;3.38;1.33;;;;;;;;;;5055324;28;20079;-71
2022/08/21 09:23:30;;;;;;;2.50;0.90;;;;;;;;;;5055272;28;20037;-71
2022/08/21 09:26:13;;;;;;;4.43;1.00;;;;;;;;;;5038608;28;20044;-76
2022/08/21 09:28:40;;;;;;;1.88;1.10;;;21.90;99.90;;;;;;5038683;28;20058;-76
2022/08/21 09:31:20;;;;;;;1.52;0.50;;;21.90;99.90;;;;;;5022982;28;20514;-71
2022/08/21 09:33:45;;;;;;;2.35;0.90;;;21.90;99.90;;;;;;5037475;28;20127;-72
2022/08/21 09:36:11;;;;;;;1.63;0.73;;;21.90;99.90;;;;;;5038401;28;20405;-78
2022/08/21 09:38:37;;;;;;;0.88;0.55;;;21.90;99.90;;;;;;5018362;28;20055;-76
2022/08/21 09:41:09;;;;;;;2.20;0.80;;;22.00;99.90;;;;;;5018773;28;20037;-76
2022/08/21 09:43:38;;;;;;;2.70;0.80;;;22.00;99.90;;;;;;5051732;28;20446;-76
2022/08/21 09:46:21;;;;;;;1.60;1.17;;;22.10;99.90;;;;;;5035205;28;20407;-77
2022/08/21 09:48:50;;;;;;;3.13;0.73;;;22.20;99.90;;;;;;5035348;28;20091;-72
2022/08/21 09:51:19;;;;;;;2.15;0.70;;;22.30;99.90;;;;;;5051690;28;20381;-77
2022/08/21 09:54:05;;;;;;;3.30;1.08;;;22.30;99.90;;;;;;5051429;28;20045;-74
2022/08/21 09:59:32;;;;;;;2.03;0.70;;;22.60;99.90;;;;;;5051397;28;20043;-71
2022/08/21 10:02:01;;;;;;;2.38;0.73;;;22.60;99.90;;;;;;5051744;28;20500;-79
2022/08/21 10:04:36;;;;;;;2.00;0.80;;;22.70;99.90;;;;;;5034992;28;20459;-71
2022/08/21 10:07:10;;;;;;;2.30;0.80;;;22.60;99.90;;;;;;5051434;28;20087;-79
2022/08/21 10:09:36;;;;;;;1.60;0.50;;;22.70;99.90;;;;;;5051413;28;20135;-74
2022/08/21 10:12:25;;;;;;;1.45;0.60;;;22.90;99.90;;;;;;5002111;28;20132;-76
2022/08/21 10:14:56;;;;;;;2.35;0.60;;;22.80;99.90;;;;;;5051255;28;20508;-78
2022/08/21 10:17:36;;;;;;;1.08;0.52;;;22.90;99.90;;;;;;5051390;28;20095;-76
2022/08/21 10:20:31;;;;;;;3.05;0.95;;;23.00;99.90;;;;;;5051326;28;20040;-76
2022/08/21 10:23:21;;;;;;;2.15;0.95;;;23.20;99.90;;;;;;5034728;28;20049;-75
2022/08/21 10:26:10;;;;;;;3.72;0.60;;;23.20;99.90;;;;;;5034539;28;20041;-76
2022/08/21 10:28:59;;;;;;;0.65;0.40;;;23.10;99.90;;;;;;5051122;28;20041;-76
2022/08/21 10:31:36;;;;;;;2.53;0.57;;;23.20;99.90;;;;;;5050728;28;20419;-73
2022/08/21 10:34:01;;;;;;;2.08;0.75;;;23.40;99.90;;;;;;5051072;28;20121;-73
2022/08/21 10:36:36;;;;;;;2.30;0.88;;;23.40;99.90;;;;;;5034954;28;20033;-76
2022/08/21 10:39:17;;;;;;;2.92;0.63;;;23.30;99.90;;;;;;5051049;28;20049;-77
2022/08/21 10:41:42;;;;;;;;;;;23.30;99.90;;;;;;5051899;28;20179;-75
2022/08/21 10:44:34;;;;;;;1.00;0.52;;;23.50;99.90;;;;;;5034731;28;20414;-78
2022/08/21 10:47:09;;;;;;;0.90;0.45;;;23.50;99.90;;;;;;5052604;28;20045;-77
2022/08/21 10:50:05;;;;;;;2.20;0.70;;;23.70;99.90;;;;;;5038143;28;20132;-73
2022/08/21 10:52:37;;;;;;;2.45;0.68;;;23.50;99.90;;;;;;5038042;28;20093;-77
2022/08/21 10:55:12;;;;;;;1.20;0.63;;;23.50;99.90;;;;;;5037927;28;20099;-83
2022/08/21 10:58:10;;;;;;;1.30;0.43;;;23.30;99.90;;;;;;5054722;28;20083;-73
2022/08/21 11:00:43;;;;;;;1.45;0.57;;;23.00;99.90;;;;;;5036119;28;20132;-73
2022/08/21 11:03:38;;;;;;;4.75;0.80;;;22.90;99.90;;;;;;5054544;28;20045;-77
2022/08/21 11:06:26;;;;;;;1.33;0.70;;;22.90;99.90;;;;;;5054825;28;20103;-77
2022/08/21 11:09:04;;;;;;;0.95;0.52;;;23.20;99.90;;;;;;5054374;28;20132;-77
2022/08/21 11:11:36;;;;;;;4.13;0.63;;;23.50;99.90;;;;;;5054548;28;20047;-81
2022/08/21 11:14:27;;;;;;;3.03;0.70;;;23.70;99.90;;;;;;5054870;28;20435;-77
2022/08/21 11:17:07;;;;;;;1.25;0.85;;;24.00;99.90;;;;;;5048869;28;20376;-78
2022/08/21 11:19:51;;;;;;;1.75;0.88;;;24.20;99.90;;;;;;5037997;28;20072;-77
2022/08/21 11:22:39;;;;;;;0.95;0.60;;;24.30;99.90;;;;;;5054552;28;20080;-77
2022/08/21 11:25:19;;;;;;;2.53;0.60;;;24.20;99.90;;;;;;5037618;28;20149;-77
2022/08/21 11:27:51;;;;;;;1.33;0.57;;;24.40;99.90;;;;;;5054141;28;20126;-84
2022/08/21 11:30:17;;;;;;;1.58;0.73;;;24.20;99.90;;;;;;5054148;28;20049;-85
2022/08/21 11:33:10;;;;;;;1.45;0.60;;;24.30;99.90;;;;;;5054255;28;20040;-77
2022/08/21 11:35:39;;;;;;;1.52;0.60;;;24.20;99.90;;;;;;5054090;28;20080;-72
2022/08/21 11:38:32;;;;;;;1.08;0.60;;;24.30;99.90;;;;;;5053948;28;20140;-77
2022/08/21 11:41:16;;;;;;;0.90;0.50;;;24.40;99.90;;;;;;5037524;28;20048;-75
2022/08/21 11:44:08;;;;;;;1.88;0.60;;;24.50;99.90;;;;;;5053689;28;20404;-72
2022/08/21 11:46:53;;;;;;;1.02;0.50;;;24.50;99.90;;;;;;5054038;28;20052;-79
2022/08/21 11:49:42;;;;;;;0.85;0.50;;;24.60;99.90;;;;;;5053761;28;20037;-76
2022/08/21 11:52:13;;;;;;;1.13;0.63;;;24.40;99.90;;;;;;5036989;28;20123;-75
2022/08/21 11:54:48;;;;;;;2.38;0.85;;;24.20;99.90;;;;;;5053348;28;20049;-75
2022/08/21 11:57:21;;;;;;;1.65;0.80;;;24.10;99.90;;;;;;5052643;28;20049;-80
2022/08/21 11:59:58;;;;;;;3.92;0.90;;;23.80;99.90;;;;;;5053697;28;20477;-77
2022/08/21 12:02:31;;;;;;;1.27;0.68;;;23.70;99.90;;;;;;5053672;28;20041;-74
2022/08/21 12:05:03;;;;;;;3.40;0.80;;;23.60;99.90;;;;;;5036823;28;20131;-77
2022/08/21 12:07:33;;;;;;;1.02;0.40;;;23.50;99.90;;;;;;5036726;28;20102;-75
2022/08/21 12:10:00;;;;;;;0.75;0.52;;;23.50;99.90;;;;;;5053559;28;20044;-71
2022/08/21 12:12:35;;;;;;;1.25;0.52;;;23.70;99.90;;;;;;5053887;28;20131;-78
2022/08/21 12:15:12;;;;;;;1.52;0.60;;;23.70;99.90;;;;;;5053063;28;20443;-71
2022/08/21 12:17:50;;;;;;;1.98;0.77;;;23.60;99.90;;;;;;5053196;28;20131;-76
2022/08/21 12:20:29;;;;;;;0.30;0.30;;;23.60;99.90;;;;;;5036470;28;20036;-73
2022/08/21 12:23:10;;;;;;;1.65;0.57;;;23.50;99.90;;;;;;5053212;28;20037;-74
2022/08/21 12:26:01;;;;;;;1.55;0.70;;;23.30;99.90;;;;;;5036631;28;20484;-75
2022/08/21 12:28:29;;;;;;;2.58;0.55;;;23.20;99.90;;;;;;5035767;28;20084;-77
2022/08/21 12:30:56;;;;;;;1.00;0.60;;;23.20;99.90;;;;;;5052928;28;20052;-76
2022/08/21 12:33:37;;;;;;;2.85;0.90;;;23.10;99.90;;;;;;5052801;28;20037;-74
2022/08/21 12:36:21;;;;;;;0.90;0.68;;;23.20;99.90;;;;;;5036212;28;20408;-75
2022/08/21 12:38:56;;;;;;;1.52;0.52;;;23.30;99.90;;;;;;5052750;28;20101;-74
2022/08/21 12:41:43;;;;;;;2.58;0.70;;;23.30;99.90;;;;;;5052700;28;20403;-75
2022/08/21 12:44:35;;;;;;;0.60;0.50;;;23.30;99.90;;;;;;5036028;28;20041;-80
2022/08/21 12:47:13;;;;;;;1.23;0.70;;;23.30;99.90;;;;;;5052534;28;20051;-81
2022/08/21 12:50:10;;;;;;;2.22;0.82;;;23.20;99.90;;;;;;5036270;28;20041;-76
2022/08/21 12:52:44;;;;;;;1.95;0.90;;;23.00;99.90;;;;;;5052538;28;20044;-78
2022/08/21 12:55:24;;;;;;;0.98;0.70;;;22.90;99.90;;;;;;5052406;28;20048;-81
2022/08/21 12:57:50;;;;;;;1.80;0.75;;;22.80;99.90;;;;;;5052516;28;20086;-77
2022/08/21 13:00:22;;;;;;;0.88;0.50;;;22.80;99.90;;;;;;5020058;28;20491;-78
2022/08/21 13:02:50;;;;;;;1.42;0.45;;;22.80;99.90;;;;;;5052531;28;20103;-79
2022/08/21 13:05:32;;;;;;;2.00;0.80;;;22.70;99.90;;;;;;5035976;28;20103;-81
2022/08/21 13:07:58;;;;;;;2.92;0.47;;;22.60;99.90;;;;;;5052078;28;20407;-81
2022/08/21 13:10:26;;;;;;;1.05;0.45;;;22.50;99.90;;;;;;5019111;28;20405;-77
2022/08/21 13:12:57;;;;;;;4.20;0.70;;;22.50;99.90;;;;;;5052103;28;20037;-77
2022/08/21 13:15:32;;;;;;;1.63;0.60;;;22.40;99.90;;;;;;5052024;28;20060;-76
2022/08/21 13:18:04;;;;;;;4.43;0.70;;;22.40;99.90;;;;;;5052252;28;20053;-77
2022/08/21 13:20:38;;;;;;;3.42;0.80;;;22.30;99.90;;;;;;5051950;28;20041;-79